createdAt,value
2023-05-09T00:01:20.705Z,24.15
2023-05-09T00:03:47.523Z,20.30
2023-05-09T00:06:15.359Z,21.60
2023-05-09T00:08:41.941Z,19.10
2023-05-09T00:11:08.538Z,23.63
2023-05-09T00:13:35.762Z,19.90
2023-05-09T00:16:03.518Z,17.17
2023-05-09T00:18:31.141Z,21.17
2023-05-09T00:20:58.170Z,16.65
2023-05-09T00:23:24.759Z,15.50
2023-05-09T00:25:51.411Z,15.43
2023-05-09T00:28:18.042Z,17.08
2023-05-09T00:30:44.691Z,19.17
2023-05-09T00:33:11.756Z,15.70
2023-05-09T00:35:38.444Z,17.42
2023-05-09T00:38:05.357Z,16.30
2023-05-09T00:40:31.996Z,19.77
2023-05-09T00:42:59.677Z,16.25
2023-05-09T00:45:26.726Z,22.58
2023-05-09T00:47:55.638Z,19.98
2023-05-09T00:50:22.319Z,18.00
2023-05-09T00:52:49.024Z,18.60
2023-05-09T00:55:16.361Z,20.05
2023-05-09T00:57:43.290Z,18.77
2023-05-09T01:00:13.337Z,17.55
2023-05-09T01:02:46.645Z,14.63
2023-05-09T01:05:15.111Z,14.20
2023-05-09T01:08:03.145Z,16.70
2023-05-09T01:10:55.124Z,15.85
2023-05-09T01:13:30.103Z,21.27
2023-05-09T01:15:59.654Z,15.82
2023-05-09T01:18:33.391Z,13.40
2023-05-09T01:21:11.276Z,15.77
2023-05-09T01:23:44.180Z,15.48
2023-05-09T01:26:20.099Z,15.40
2023-05-09T01:29:28.505Z,16.48
2023-05-09T01:31:57.640Z,18.27
2023-05-09T01:34:27.122Z,15.43
2023-05-09T01:36:58.551Z,15.20
2023-05-09T01:39:26.792Z,14.07
2023-05-09T01:41:56.574Z,19.80
2023-05-09T01:44:25.533Z,19.70
2023-05-09T01:46:54.805Z,16.48
2023-05-09T01:49:22.748Z,21.60
2023-05-09T01:51:51.049Z,24.60
2023-05-09T01:54:18.657Z,21.42
2023-05-09T01:56:47.090Z,23.05
2023-05-09T01:59:16.446Z,19.67
2023-05-09T02:01:45.548Z,19.40
2023-05-09T02:04:15.868Z,21.67
2023-05-09T02:06:44.661Z,20.80
2023-05-09T02:09:12.865Z,23.27
2023-05-09T02:11:40.539Z,17.73
2023-05-09T02:14:07.934Z,16.73
2023-05-09T02:16:35.452Z,17.27
2023-05-09T02:19:02.621Z,19.90
2023-05-09T02:21:29.350Z,15.82
2023-05-09T02:23:56.098Z,17.98
2023-05-09T02:26:23.084Z,18.23
2023-05-09T02:28:50.802Z,17.90
2023-05-09T02:31:20.297Z,14.88
2023-05-09T02:33:48.003Z,19.40
2023-05-09T02:36:16.592Z,15.63
2023-05-09T02:38:44.099Z,18.92
2023-05-09T02:41:14.866Z,17.85
2023-05-09T02:43:42.025Z,14.87
2023-05-09T02:46:10.234Z,15.65
2023-05-09T02:48:37.465Z,15.35
2023-05-09T02:51:05.047Z,16.25
2023-05-09T02:53:31.761Z,15.15
2023-05-09T02:55:58.721Z,17.15
2023-05-09T02:58:25.390Z,14.02
2023-05-09T03:00:52.007Z,18.90
2023-05-09T03:03:19.302Z,17.92
2023-05-09T03:05:46.579Z,15.48
2023-05-09T03:08:13.238Z,16.25
2023-05-09T03:10:39.913Z,17.88
2023-05-09T03:13:08.426Z,16.60
2023-05-09T03:15:35.194Z,17.88
2023-05-09T03:18:02.861Z,18.50
2023-05-09T03:20:29.672Z,17.88
2023-05-09T03:22:56.329Z,20.27
2023-05-09T03:25:22.987Z,18.98
2023-05-09T03:27:49.726Z,18.42
2023-05-09T03:30:16.451Z,15.27
2023-05-09T03:32:45.547Z,16.83
2023-05-09T03:35:12.430Z,17.98
2023-05-09T03:37:39.094Z,16.88
2023-05-09T03:40:07.809Z,17.40
2023-05-09T03:42:41.000Z,14.05
2023-05-09T03:45:08.127Z,15.80
2023-05-09T03:47:34.769Z,17.75
2023-05-09T03:50:01.830Z,21.27
2023-05-09T03:52:28.904Z,19.58
2023-05-09T03:54:55.639Z,20.98
2023-05-09T03:57:22.631Z,12.45
2023-05-09T03:59:51.313Z,15.90
2023-05-09T04:02:18.191Z,15.68
2023-05-09T04:04:47.323Z,17.17
2023-05-09T04:07:16.975Z,16.85
2023-05-09T04:09:45.160Z,17.73
2023-05-09T04:12:11.936Z,17.58
2023-05-09T04:14:39.270Z,17.88
2023-05-09T04:17:05.975Z,15.98
2023-05-09T04:19:32.715Z,19.05
2023-05-09T04:21:59.330Z,17.95
2023-05-09T04:24:26.443Z,16.45
2023-05-09T04:26:53.359Z,16.70
2023-05-09T04:29:23.066Z,14.05
2023-05-09T04:31:53.702Z,17.20
2023-05-09T04:34:23.769Z,15.73
2023-05-09T04:36:52.205Z,17.02
2023-05-09T04:39:19.710Z,15.25
2023-05-09T04:41:55.817Z,15.05
2023-05-09T04:44:23.426Z,14.45
2023-05-09T04:46:50.712Z,13.63
2023-05-09T04:49:17.346Z,14.15
2023-05-09T04:51:43.913Z,16.02
2023-05-09T04:54:10.575Z,15.13
2023-05-09T04:56:39.044Z,15.25
2023-05-09T04:59:05.767Z,14.35
2023-05-09T05:01:32.557Z,20.95
2023-05-09T05:04:00.017Z,18.25
2023-05-09T05:06:26.754Z,20.23
2023-05-09T05:08:53.312Z,15.57
2023-05-09T05:11:20.569Z,16.50
2023-05-09T05:13:47.245Z,16.85
2023-05-09T05:16:14.012Z,14.20
2023-05-09T05:18:41.157Z,17.08
2023-05-09T05:21:08.504Z,16.92
2023-05-09T05:23:35.366Z,17.35
2023-05-09T05:26:02.796Z,19.92
2023-05-09T05:28:31.393Z,17.25
2023-05-09T05:30:58.373Z,15.98
2023-05-09T05:33:25.094Z,16.25
2023-05-09T05:35:52.363Z,15.18
2023-05-09T05:38:19.318Z,18.25
2023-05-09T05:40:49.801Z,17.20
2023-05-09T05:43:16.722Z,16.67
2023-05-09T05:45:43.361Z,14.43
2023-05-09T05:48:15.395Z,20.83
2023-05-09T05:50:42.349Z,18.63
2023-05-09T05:53:10.060Z,18.33
2023-05-09T05:55:37.113Z,19.08
2023-05-09T05:58:05.206Z,18.10
2023-05-09T06:00:31.769Z,17.55
2023-05-09T06:03:03.710Z,15.43
2023-05-09T06:05:50.957Z,18.23
2023-05-09T06:08:17.984Z,18.73
2023-05-09T06:10:44.620Z,18.15
2023-05-09T06:13:11.276Z,16.27
2023-05-09T06:15:41.112Z,18.25
2023-05-09T06:18:08.780Z,16.23
2023-05-09T06:20:36.056Z,21.13
2023-05-09T06:23:02.661Z,18.98
2023-05-09T06:25:29.584Z,20.67
2023-05-09T06:27:56.328Z,19.25
2023-05-09T06:30:26.759Z,17.67
2023-05-09T06:32:54.963Z,21.70
2023-05-09T06:35:21.893Z,19.55
2023-05-09T06:37:49.017Z,19.40
2023-05-09T06:40:16.848Z,19.30
2023-05-09T06:42:43.753Z,17.15
2023-05-09T06:45:11.466Z,16.23
2023-05-09T06:47:38.118Z,17.60
2023-05-09T06:50:05.212Z,16.42
2023-05-09T06:52:31.759Z,16.30
2023-05-09T06:54:58.276Z,19.17
2023-05-09T06:57:25.059Z,19.63
2023-05-09T06:59:51.738Z,17.52
2023-05-09T07:02:18.596Z,15.00
2023-05-09T07:04:45.244Z,15.93
2023-05-09T07:07:11.899Z,15.00
2023-05-09T07:09:38.483Z,15.52
2023-05-09T07:12:05.557Z,13.40
2023-05-09T07:14:32.159Z,13.02
2023-05-09T07:17:13.775Z,13.52
2023-05-09T07:19:45.699Z,12.52
2023-05-09T07:22:13.514Z,13.23
2023-05-09T07:24:40.238Z,13.63
2023-05-09T07:27:07.108Z,14.25
2023-05-09T07:29:33.626Z,11.93
2023-05-09T07:32:00.504Z,9.95
2023-05-09T07:34:27.378Z,13.05
2023-05-09T07:36:54.646Z,11.13
2023-05-09T07:39:21.259Z,11.43
2023-05-09T07:41:48.775Z,11.65
2023-05-09T07:44:15.988Z,11.60
2023-05-09T07:46:42.880Z,11.15
2023-05-09T07:49:09.613Z,11.82
2023-05-09T07:51:36.213Z,10.70
2023-05-09T07:54:03.052Z,12.55
2023-05-09T07:56:29.606Z,11.20
2023-05-09T07:58:56.152Z,11.65
2023-05-09T08:01:22.755Z,11.55
2023-05-09T08:03:49.627Z,10.20
2023-05-09T08:06:16.277Z,10.05
2023-05-09T08:08:42.862Z,12.45
2023-05-09T08:11:09.703Z,12.07
2023-05-09T08:13:36.526Z,10.77
2023-05-09T08:16:03.214Z,9.07
2023-05-09T08:18:29.799Z,9.52
2023-05-09T08:20:56.489Z,10.85
2023-05-09T08:23:23.000Z,8.48
2023-05-09T08:25:54.229Z,8.60
2023-05-09T08:30:51.736Z,10.05
2023-05-09T08:33:18.490Z,7.45
2023-05-09T08:35:45.758Z,11.57
2023-05-09T08:38:12.310Z,9.57
2023-05-09T08:40:40.798Z,9.10
2023-05-09T08:43:08.049Z,8.27
2023-05-09T08:46:06.886Z,8.25
2023-05-09T08:48:37.552Z,10.13
2023-05-09T08:51:07.675Z,7.00
2023-05-09T08:53:34.313Z,5.80
2023-05-09T08:56:03.745Z,4.45
2023-05-09T08:58:31.472Z,9.10
2023-05-09T09:00:59.118Z,6.95
2023-05-09T09:03:26.309Z,5.57
2023-05-09T09:05:54.922Z,6.07
2023-05-09T09:08:22.380Z,6.97
2023-05-09T09:10:49.565Z,5.63
2023-05-09T09:13:17.690Z,3.30
2023-05-09T09:15:46.311Z,3.78
2023-05-09T09:18:19.700Z,3.50
2023-05-09T09:21:15.771Z,4.00
2023-05-09T09:23:44.022Z,2.65
2023-05-09T09:26:10.987Z,2.15
2023-05-09T09:28:37.650Z,3.08
2023-05-09T09:31:21.798Z,3.20
2023-05-09T09:33:49.235Z,2.47
2023-05-09T09:36:15.805Z,2.70
2023-05-09T09:38:43.927Z,3.83
2023-05-09T09:41:12.891Z,2.40
2023-05-09T09:43:45.480Z,2.63
2023-05-09T09:46:14.390Z,2.05
2023-05-09T09:48:50.333Z,2.92
2023-05-09T09:51:18.436Z,3.97
2023-05-09T09:53:45.141Z,2.70
2023-05-09T09:56:11.803Z,1.75
2023-05-09T09:58:38.964Z,2.78
2023-05-09T10:01:16.697Z,2.78
2023-05-09T10:03:48.095Z,3.15
2023-05-09T10:06:16.438Z,2.33
2023-05-09T10:08:48.874Z,1.95
2023-05-09T10:11:15.488Z,2.55
2023-05-09T10:13:43.717Z,1.55
2023-05-09T10:16:11.638Z,3.28
2023-05-09T10:18:41.135Z,2.03
2023-05-09T10:21:11.299Z,3.35
2023-05-09T10:23:38.316Z,1.15
2023-05-09T10:26:22.996Z,1.58
2023-05-09T10:28:54.795Z,1.67
2023-05-09T10:31:29.273Z,2.17
2023-05-09T10:33:56.520Z,2.13
2023-05-09T10:36:26.344Z,1.10
2023-05-09T10:38:54.959Z,1.30
2023-05-09T10:41:22.521Z,1.33
2023-05-09T10:43:49.606Z,1.75
2023-05-09T10:46:16.814Z,1.98
2023-05-09T10:48:44.527Z,2.00
2023-05-09T10:51:13.064Z,0.95
2023-05-09T10:53:45.857Z,1.55
2023-05-09T10:56:32.502Z,2.47
2023-05-09T10:59:00.298Z,1.27
2023-05-09T11:01:39.231Z,2.75
2023-05-09T11:04:11.139Z,1.70
2023-05-09T11:06:52.234Z,1.73
2023-05-09T11:09:33.294Z,1.33
2023-05-09T11:12:09.645Z,4.15
2023-05-09T11:14:47.844Z,1.15
2023-05-09T11:17:21.222Z,3.47
2023-05-09T11:19:47.815Z,1.38
2023-05-09T11:22:22.266Z,1.33
2023-05-09T11:24:58.965Z,0.90
2023-05-09T11:27:28.484Z,1.20
2023-05-09T11:29:59.488Z,1.98
2023-05-09T11:32:40.404Z,1.25
2023-05-09T11:35:09.406Z,1.13
2023-05-09T11:37:51.338Z,2.05
2023-05-09T11:40:20.259Z,1.00
2023-05-09T11:42:50.080Z,0.82
2023-05-09T11:45:17.702Z,0.68
2023-05-09T11:47:46.272Z,0.95
2023-05-09T11:50:14.530Z,3.17
2023-05-09T11:52:42.118Z,0.85
2023-05-09T11:55:13.067Z,0.75
2023-05-09T11:57:41.624Z,2.30
2023-05-09T12:00:10.411Z,0.85
2023-05-09T12:02:38.302Z,1.52
2023-05-09T12:05:13.642Z,2.17
2023-05-09T12:07:41.550Z,2.83
2023-05-09T12:10:09.254Z,4.63
2023-05-09T12:12:46.337Z,1.33
2023-05-09T12:15:14.171Z,1.63
2023-05-09T12:17:47.073Z,2.75
2023-05-09T12:20:15.198Z,3.72
2023-05-09T12:22:44.887Z,3.53
2023-05-09T12:25:12.282Z,1.40
2023-05-09T12:27:40.660Z,1.75
2023-05-09T12:30:10.296Z,4.30
2023-05-09T12:32:40.317Z,2.55
2023-05-09T12:35:09.632Z,2.65
2023-05-09T12:37:36.440Z,2.80
2023-05-09T12:40:05.011Z,5.88
2023-05-09T12:42:32.310Z,3.97
2023-05-09T12:44:59.664Z,6.68
2023-05-09T12:47:30.082Z,3.80
2023-05-09T12:50:01.551Z,3.20
2023-05-09T12:52:38.127Z,3.58
2023-05-09T12:55:13.848Z,2.90
2023-05-09T12:57:41.983Z,4.93
2023-05-09T13:00:10.243Z,4.28
2023-05-09T13:02:39.844Z,2.70
2023-05-09T13:05:10.899Z,3.97
2023-05-09T13:07:45.154Z,3.47
2023-05-09T13:10:12.758Z,3.75
2023-05-09T13:12:40.478Z,6.15
2023-05-09T13:15:08.491Z,3.25
2023-05-09T13:17:35.120Z,3.75
2023-05-09T13:20:01.812Z,3.97
2023-05-09T13:22:28.591Z,4.20
2023-05-09T13:24:55.176Z,3.30
2023-05-09T13:27:21.785Z,3.05
2023-05-09T13:29:48.545Z,6.88
2023-05-09T13:32:15.117Z,4.10
2023-05-09T13:34:42.470Z,4.20
2023-05-09T13:37:09.009Z,4.38
2023-05-09T13:39:35.922Z,3.78
2023-05-09T13:42:02.564Z,4.65
2023-05-09T13:44:29.199Z,3.17
2023-05-09T13:46:57.630Z,2.58
2023-05-09T13:49:24.288Z,6.43
2023-05-09T13:51:50.879Z,3.70
2023-05-09T13:54:19.668Z,3.72
2023-05-09T13:56:46.242Z,4.50
2023-05-09T13:59:12.981Z,9.93
2023-05-09T14:01:39.709Z,3.45
2023-05-09T14:04:06.442Z,2.58
2023-05-09T14:06:33.358Z,3.13
2023-05-09T14:08:59.959Z,4.85
2023-05-09T14:11:26.728Z,4.43
2023-05-09T14:13:53.515Z,6.63
2023-05-09T14:16:21.094Z,3.97
2023-05-09T14:18:48.405Z,6.25
2023-05-09T14:21:15.522Z,6.50
2023-05-09T14:23:42.278Z,6.60
2023-05-09T14:26:08.965Z,10.10
2023-05-09T14:28:36.887Z,5.00
2023-05-09T14:31:03.599Z,4.65
2023-05-09T14:33:30.859Z,10.88
2023-05-09T14:35:57.504Z,5.78
2023-05-09T14:38:24.190Z,10.23
2023-05-09T14:40:50.938Z,6.10
2023-05-09T14:43:17.527Z,6.82
2023-05-09T14:45:44.381Z,7.32
2023-05-09T14:48:12.267Z,5.55
2023-05-09T14:50:40.098Z,6.68
2023-05-09T14:53:07.083Z,8.82
2023-05-09T14:55:33.908Z,9.27
2023-05-09T14:58:00.535Z,7.35
2023-05-09T15:00:28.534Z,8.10
2023-05-09T15:02:56.131Z,7.95
2023-05-09T15:05:22.802Z,5.65
2023-05-09T15:07:49.483Z,5.25
2023-05-09T15:10:16.332Z,6.30
2023-05-09T15:12:43.319Z,7.60
2023-05-09T15:15:13.292Z,8.70
2023-05-09T15:17:39.947Z,7.20
2023-05-09T15:20:07.453Z,7.45
2023-05-09T15:22:34.565Z,6.30
2023-05-09T15:25:02.036Z,5.95
2023-05-09T15:27:29.497Z,6.25
2023-05-09T15:29:56.205Z,4.40
2023-05-09T15:32:22.891Z,5.63
2023-05-09T15:34:49.510Z,6.85
2023-05-09T15:37:16.223Z,5.95
2023-05-09T15:39:43.642Z,5.32
2023-05-09T15:42:12.284Z,11.77
2023-05-09T15:44:40.106Z,6.72
2023-05-09T15:47:07.504Z,6.25
2023-05-09T15:49:34.477Z,6.97
2023-05-09T15:52:05.341Z,4.63
2023-05-09T15:54:33.556Z,5.13
2023-05-09T15:57:00.685Z,4.43
2023-05-09T15:59:27.662Z,3.58
2023-05-09T16:01:55.078Z,4.90
2023-05-09T16:04:22.107Z,4.85
2023-05-09T16:06:49.022Z,5.68
2023-05-09T16:09:15.832Z,5.57
2023-05-09T16:11:42.850Z,5.10
2023-05-09T16:14:11.432Z,7.25
2023-05-09T16:16:39.491Z,5.18
2023-05-09T16:19:06.779Z,20.27
2023-05-09T16:21:33.621Z,5.40
2023-05-09T16:24:02.949Z,5.93
2023-05-09T16:26:29.641Z,5.85
2023-05-09T16:28:56.654Z,9.10
2023-05-09T16:31:26.647Z,7.43
2023-05-09T16:33:54.205Z,6.53
2023-05-09T16:36:21.317Z,4.10
2023-05-09T16:38:48.131Z,4.00
2023-05-09T16:41:15.297Z,4.75
2023-05-09T16:43:42.718Z,5.15
2023-05-09T16:46:09.458Z,5.30
2023-05-09T16:48:36.145Z,3.85
2023-05-09T16:51:03.338Z,4.97
2023-05-09T16:53:29.934Z,6.47
2023-05-09T16:55:56.982Z,4.32
2023-05-09T16:58:23.672Z,4.47
2023-05-09T17:00:50.967Z,4.70
2023-05-09T17:03:17.625Z,4.22
2023-05-09T17:05:44.223Z,4.80
2023-05-09T17:08:11.334Z,9.68
2023-05-09T17:10:39.495Z,3.10
2023-05-09T17:13:08.842Z,4.20
2023-05-09T17:15:35.809Z,5.47
2023-05-09T17:18:03.137Z,6.22
2023-05-09T17:20:30.874Z,4.22
2023-05-09T17:22:57.848Z,4.53
2023-05-09T17:25:24.559Z,9.48
2023-05-09T17:27:51.100Z,5.75
2023-05-09T17:30:19.909Z,4.93
2023-05-09T17:32:48.048Z,4.43
2023-05-09T17:35:15.070Z,5.18
2023-05-09T17:37:41.666Z,5.60
2023-05-09T17:40:08.798Z,5.18
2023-05-09T17:42:35.430Z,5.57
2023-05-09T17:45:02.017Z,6.28
2023-05-09T17:47:29.096Z,6.18
2023-05-09T17:49:55.727Z,6.35
2023-05-09T17:52:22.599Z,5.15
2023-05-09T17:54:49.237Z,5.20
2023-05-09T17:57:15.772Z,9.32
2023-05-09T17:59:42.580Z,5.97
2023-05-09T18:02:09.181Z,5.03
2023-05-09T18:04:36.092Z,4.95
2023-05-09T18:07:02.754Z,6.32
2023-05-09T18:09:29.495Z,6.78
2023-05-09T18:11:56.109Z,6.43
2023-05-09T18:14:22.700Z,8.55
2023-05-09T18:16:49.367Z,7.00
2023-05-09T18:19:16.208Z,8.45
2023-05-09T18:21:42.897Z,8.70
2023-05-09T18:24:09.563Z,4.93
2023-05-09T18:26:36.189Z,7.85
2023-05-09T18:29:02.769Z,9.13
2023-05-09T18:31:31.235Z,6.35
2023-05-09T18:33:58.009Z,6.35
2023-05-09T18:36:24.637Z,6.45
2023-05-09T18:38:51.275Z,5.53
2023-05-09T18:41:18.018Z,6.68
2023-05-09T18:43:45.949Z,6.95
2023-05-09T18:46:17.461Z,5.40
2023-05-09T18:48:45.350Z,8.00
2023-05-09T18:51:12.156Z,8.93
2023-05-09T18:53:38.944Z,5.78
2023-05-09T18:56:05.651Z,7.53
2023-05-09T18:58:32.510Z,9.10
2023-05-09T19:00:59.226Z,6.88
2023-05-09T19:03:27.174Z,7.75
2023-05-09T19:05:54.362Z,6.78
2023-05-09T19:08:21.067Z,5.07
2023-05-09T19:10:47.850Z,7.68
2023-05-09T19:13:16.264Z,8.05
2023-05-09T19:15:43.614Z,5.40
2023-05-09T19:18:10.224Z,8.05
2023-05-09T19:20:36.873Z,6.32
2023-05-09T19:23:03.600Z,7.47
2023-05-09T19:25:33.650Z,7.28
2023-05-09T19:28:00.730Z,5.43
2023-05-09T19:30:27.459Z,4.97
2023-05-09T19:32:54.142Z,5.05
2023-05-09T19:35:20.837Z,5.72
2023-05-09T19:37:47.436Z,5.18
2023-05-09T19:40:14.819Z,6.72
2023-05-09T19:42:41.939Z,4.95
2023-05-09T19:45:09.166Z,6.57
2023-05-09T19:47:35.994Z,8.50
2023-05-09T19:50:02.686Z,6.57
2023-05-09T19:52:29.934Z,7.35
2023-05-09T19:54:56.672Z,5.70
2023-05-09T19:57:23.382Z,5.25
2023-05-09T19:59:49.897Z,9.20
2023-05-09T20:02:16.445Z,17.33
2023-05-09T20:04:49.721Z,16.65
2023-05-09T20:07:17.284Z,10.80
2023-05-09T20:09:44.092Z,8.18
2023-05-09T20:12:10.883Z,4.88
2023-05-09T20:14:37.642Z,1.88
2023-05-09T20:17:05.368Z,2.30
2023-05-09T20:19:33.183Z,1.90
2023-05-09T20:22:01.186Z,1.80
2023-05-09T20:24:28.610Z,2.47
2023-05-09T20:26:55.281Z,1.30
2023-05-09T20:29:22.045Z,1.35
2023-05-09T20:31:48.752Z,3.63
2023-05-09T20:34:17.938Z,1.70
2023-05-09T20:36:52.151Z,1.02
2023-05-09T20:39:23.202Z,2.58
2023-05-09T20:41:50.690Z,1.30
2023-05-09T20:44:17.876Z,0.60
2023-05-09T20:46:45.340Z,0.95
2023-05-09T20:49:12.467Z,0.98
2023-05-09T20:51:39.203Z,0.82
2023-05-09T20:54:06.421Z,1.50
2023-05-09T20:56:35.420Z,2.20
2023-05-09T20:59:03.988Z,2.88
2023-05-09T21:01:32.576Z,1.63
2023-05-09T21:03:59.368Z,1.48
2023-05-09T21:06:26.042Z,0.98
2023-05-09T21:08:52.680Z,1.20
2023-05-09T21:11:19.337Z,0.65
2023-05-09T21:13:45.906Z,0.63
2023-05-09T21:16:12.524Z,0.98
2023-05-09T21:18:39.076Z,2.53
2023-05-09T21:21:08.057Z,1.00
2023-05-09T21:23:34.963Z,2.38
2023-05-09T21:26:02.425Z,1.73
2023-05-09T21:28:29.331Z,1.17
2023-05-09T21:30:56.298Z,0.90
2023-05-09T21:33:22.994Z,1.65
2023-05-09T21:35:49.664Z,0.77
2023-05-09T21:38:16.244Z,1.00
2023-05-09T21:40:42.827Z,1.90
2023-05-09T21:43:09.434Z,0.90
2023-05-09T21:45:36.002Z,2.55
2023-05-09T21:48:02.842Z,0.50
2023-05-09T21:50:29.483Z,0.60
2023-05-09T21:52:59.202Z,1.42
2023-05-09T21:55:25.891Z,1.80
2023-05-09T21:57:52.485Z,1.35
2023-05-09T22:00:19.630Z,1.10
2023-05-09T22:02:47.007Z,0.28
2023-05-09T22:05:13.713Z,1.00
2023-05-09T22:07:40.337Z,2.13
2023-05-09T22:10:07.595Z,1.92
2023-05-09T22:12:34.186Z,1.20
2023-05-09T22:15:00.904Z,0.70
2023-05-09T22:17:27.692Z,0.75
2023-05-09T22:19:54.541Z,0.63
2023-05-09T22:22:21.371Z,1.25
2023-05-09T22:24:49.600Z,0.65
2023-05-09T22:27:16.343Z,1.50
2023-05-09T22:29:42.880Z,3.35
2023-05-09T22:32:10.032Z,0.52
2023-05-09T22:34:36.816Z,1.35
2023-05-09T22:37:03.573Z,0.93
2023-05-09T22:39:30.894Z,1.50
2023-05-09T22:41:57.506Z,0.38
2023-05-09T22:44:24.067Z,0.30
2023-05-09T22:46:50.800Z,0.38
2023-05-09T22:49:17.685Z,0.35
2023-05-09T22:51:44.266Z,1.75
2023-05-09T22:54:10.917Z,0.77
2023-05-09T22:56:37.538Z,2.05
2023-05-09T22:59:04.541Z,0.73
2023-05-09T23:01:31.559Z,0.98
2023-05-09T23:03:58.160Z,1.35
2023-05-09T23:06:25.001Z,0.38
2023-05-09T23:08:51.763Z,2.28
2023-05-09T23:11:18.484Z,0.28
2023-05-09T23:13:45.178Z,1.10
2023-05-09T23:16:11.738Z,3.95
2023-05-09T23:18:38.437Z,0.30
2023-05-09T23:21:05.182Z,0.65
2023-05-09T23:23:31.752Z,0.85
2023-05-09T23:25:58.738Z,0.75
2023-05-09T23:28:25.381Z,2.58
2023-05-09T23:30:53.893Z,1.23
2023-05-09T23:33:20.587Z,0.65
2023-05-09T23:35:48.225Z,0.40
2023-05-09T23:38:15.007Z,1.10
2023-05-09T23:40:45.031Z,0.50
2023-05-09T23:43:12.644Z,1.50
2023-05-09T23:45:39.881Z,0.40
2023-05-09T23:48:07.499Z,1.27
2023-05-09T23:50:34.196Z,0.60
2023-05-09T23:53:00.839Z,0.55
2023-05-09T23:55:27.959Z,0.95
2023-05-09T23:57:54.700Z,0.40
